Terminal Aerodrome Forecast
Issued by NWS

Home | Current Version | Previous Version | Text Only | Print | Product List | Glossary On
Versions: 1 2 3 4 5 6 7 8 9 10 11 12 13 14 15 16
000
FTUS45 KTWC 052329
TAFOLS
TAF
KOLS 052329Z 0600/0624 18008KT P6SM BKN220
     FM060300 VRB03KT P6SM BKN220
     FM061700 17008KT P6SM SCT220
     FM062000 20013G20KT P6SM BKN220=

USA.gov is the U.S. government's official web portal to all federal, state and local government web resources and services.